createdAt,value
2022-10-26T00:00:29.175Z,10.10
2022-10-26T00:02:55.987Z,10.10
2022-10-26T00:05:23.472Z,10.10
2022-10-26T00:07:50.397Z,10.10
2022-10-26T00:10:17.184Z,10.10
2022-10-26T00:12:43.876Z,10.10
2022-10-26T00:15:10.753Z,10.10
2022-10-26T00:17:37.458Z,10.00
2022-10-26T00:20:04.340Z,9.90
2022-10-26T00:22:31.023Z,9.80
2022-10-26T00:24:57.705Z,9.80
2022-10-26T00:27:24.426Z,9.80
2022-10-26T00:29:51.080Z,9.80
2022-10-26T00:32:17.770Z,9.80
2022-10-26T00:34:44.465Z,9.90
2022-10-26T00:37:11.151Z,9.90
2022-10-26T00:39:37.861Z,9.90
2022-10-26T00:42:04.649Z,9.90
2022-10-26T00:44:49.619Z,9.90
2022-10-26T00:47:29.334Z,9.90
2022-10-26T00:49:56.590Z,9.90
2022-10-26T00:52:23.371Z,9.90
2022-10-26T00:54:50.080Z,9.90
2022-10-26T00:57:16.815Z,9.80
2022-10-26T00:59:43.724Z,9.80
2022-10-26T01:02:10.389Z,9.90
2022-10-26T01:04:37.110Z,9.90
2022-10-26T01:07:04.425Z,9.90
2022-10-26T01:09:31.125Z,9.90
2022-10-26T01:11:57.840Z,9.90
2022-10-26T01:14:24.525Z,9.90
2022-10-26T01:17:19.045Z,10.00
2022-10-26T01:20:23.831Z,9.90
2022-10-26T01:23:12.811Z,9.90
2022-10-26T01:26:04.680Z,9.90
2022-10-26T01:28:46.404Z,9.90
2022-10-26T01:31:14.479Z,9.80
2022-10-26T01:33:44.264Z,9.80
2022-10-26T01:36:50.234Z,9.70
2022-10-26T01:39:28.749Z,9.70
2022-10-26T01:42:01.648Z,9.60
2022-10-26T01:44:41.937Z,9.60
2022-10-26T01:47:10.026Z,9.60
2022-10-26T01:49:39.816Z,9.60
2022-10-26T01:52:06.627Z,9.60
2022-10-26T01:57:05.746Z,9.70
2022-10-26T01:59:50.420Z,9.70
2022-10-26T02:02:26.721Z,9.70
2022-10-26T02:05:11.284Z,9.70
2022-10-26T02:07:57.572Z,9.70
2022-10-26T02:10:42.653Z,9.70
2022-10-26T02:13:31.132Z,9.80
2022-10-26T02:16:07.587Z,9.70
2022-10-26T02:18:51.881Z,9.80
2022-10-26T02:21:21.415Z,9.80
2022-10-26T02:23:48.477Z,9.80
2022-10-26T02:26:16.681Z,9.80
2022-10-26T02:28:46.742Z,9.80
2022-10-26T02:31:14.076Z,9.80
2022-10-26T02:33:43.711Z,9.80
2022-10-26T02:36:11.875Z,9.80
2022-10-26T02:38:38.602Z,9.80
2022-10-26T02:41:05.328Z,9.80
2022-10-26T02:43:33.377Z,9.80
2022-10-26T02:46:06.015Z,9.90
2022-10-26T02:48:32.768Z,9.80
2022-10-26T02:51:11.283Z,9.80
2022-10-26T02:54:07.076Z,9.90
2022-10-26T02:56:49.020Z,9.90
2022-10-26T02:59:15.727Z,9.90
2022-10-26T03:01:42.458Z,9.90
2022-10-26T03:04:09.265Z,9.90
2022-10-26T03:06:35.975Z,9.90
2022-10-26T03:09:02.703Z,9.90
2022-10-26T03:11:29.468Z,9.80
2022-10-26T03:13:56.127Z,9.90
2022-10-26T03:16:22.798Z,9.90
2022-10-26T03:18:49.494Z,9.90
2022-10-26T03:21:16.203Z,9.90
2022-10-26T03:23:42.954Z,9.80
2022-10-26T03:26:09.653Z,9.80
2022-10-26T03:28:36.425Z,9.80
2022-10-26T03:31:03.088Z,9.80
2022-10-26T03:33:29.807Z,9.80
2022-10-26T03:35:59.406Z,9.80
2022-10-26T03:38:26.119Z,9.80
2022-10-26T03:40:52.865Z,9.80
2022-10-26T03:43:19.511Z,9.80
2022-10-26T03:45:46.150Z,9.80
2022-10-26T03:48:12.904Z,9.80
2022-10-26T03:50:39.630Z,9.80
2022-10-26T03:53:06.448Z,9.80
2022-10-26T03:55:33.211Z,9.70
2022-10-26T03:57:59.939Z,9.80
2022-10-26T04:00:26.611Z,9.80
2022-10-26T04:02:57.825Z,9.80
2022-10-26T04:05:28.453Z,9.80
2022-10-26T04:08:04.491Z,9.80
2022-10-26T04:10:31.679Z,9.80
2022-10-26T04:13:01.842Z,9.80
2022-10-26T04:15:28.736Z,9.80
2022-10-26T04:17:59.085Z,9.80
2022-10-26T04:20:26.340Z,9.70
2022-10-26T04:23:03.159Z,9.70
2022-10-26T04:25:32.830Z,9.70
2022-10-26T04:28:01.071Z,9.70
2022-10-26T04:30:27.782Z,9.70
2022-10-26T04:32:54.427Z,9.80
2022-10-26T04:35:21.132Z,9.80
2022-10-26T04:37:47.827Z,9.80
2022-10-26T04:40:14.588Z,9.80
2022-10-26T04:42:45.037Z,9.80
2022-10-26T04:45:12.195Z,9.80
2022-10-26T04:47:38.944Z,9.80
2022-10-26T04:50:06.179Z,9.80
2022-10-26T04:52:32.923Z,9.80
2022-10-26T04:54:59.577Z,9.80
2022-10-26T04:57:26.266Z,9.80
2022-10-26T04:59:53.080Z,9.80
2022-10-26T05:02:21.219Z,9.80
2022-10-26T05:04:48.385Z,9.80
2022-10-26T05:07:15.114Z,9.80
2022-10-26T05:09:41.795Z,9.80
2022-10-26T05:12:08.604Z,9.90
2022-10-26T05:14:35.332Z,9.90
2022-10-26T05:17:02.145Z,9.90
2022-10-26T05:19:28.902Z,9.80
2022-10-26T05:21:55.576Z,9.80
2022-10-26T05:24:22.253Z,9.80
2022-10-26T05:26:48.894Z,9.90
2022-10-26T05:29:15.610Z,9.80
2022-10-26T05:31:42.592Z,9.90
2022-10-26T05:34:09.300Z,9.90
2022-10-26T05:36:36.032Z,9.90
2022-10-26T05:39:03.125Z,9.80
2022-10-26T05:41:29.917Z,9.90
2022-10-26T05:43:56.589Z,9.90
2022-10-26T05:46:23.295Z,9.90
2022-10-26T05:48:50.081Z,9.90
2022-10-26T05:51:16.837Z,9.80
2022-10-26T05:53:43.570Z,9.90
2022-10-26T05:56:21.053Z,9.80
2022-10-26T05:58:48.370Z,9.80
2022-10-26T06:01:25.378Z,9.90
2022-10-26T06:04:04.204Z,9.90
2022-10-26T06:06:37.441Z,9.90
2022-10-26T06:09:04.400Z,10.00
2022-10-26T06:11:31.232Z,10.00
2022-10-26T06:14:00.333Z,10.00
2022-10-26T06:17:10.129Z,10.00
2022-10-26T06:19:47.769Z,10.00
2022-10-26T06:22:32.884Z,10.00
2022-10-26T06:25:17.731Z,10.00
2022-10-26T06:27:56.909Z,10.00
2022-10-26T06:30:23.616Z,10.10
2022-10-26T06:32:57.339Z,10.10
2022-10-26T06:35:41.480Z,10.00
2022-10-26T06:38:13.468Z,10.00
2022-10-26T06:40:40.792Z,10.10
2022-10-26T06:43:19.385Z,10.10
2022-10-26T06:45:46.045Z,10.10
2022-10-26T06:48:16.745Z,10.10
2022-10-26T06:50:48.130Z,10.10
2022-10-26T06:53:33.996Z,10.10
2022-10-26T06:56:01.007Z,10.20
2022-10-26T06:58:34.849Z,10.20
2022-10-26T07:01:01.849Z,10.20
2022-10-26T07:03:28.500Z,10.30
2022-10-26T07:05:55.293Z,10.30
2022-10-26T07:08:21.993Z,10.40
2022-10-26T07:10:48.751Z,10.50
2022-10-26T07:13:15.587Z,10.60
2022-10-26T07:15:43.021Z,10.60
2022-10-26T07:18:09.852Z,10.70
2022-10-26T07:20:38.062Z,10.70
2022-10-26T07:23:07.031Z,10.80
2022-10-26T07:25:34.225Z,10.80
2022-10-26T07:28:00.966Z,10.90
2022-10-26T07:30:28.185Z,10.90
2022-10-26T07:33:05.972Z,10.90
2022-10-26T07:35:35.977Z,11.00
2022-10-26T07:38:02.672Z,11.00
2022-10-26T07:40:29.354Z,11.10
2022-10-26T07:43:00.051Z,11.10
2022-10-26T07:45:27.396Z,11.20
2022-10-26T07:47:54.045Z,11.20
2022-10-26T07:50:20.760Z,11.30
2022-10-26T07:52:47.697Z,11.30
2022-10-26T07:55:14.699Z,11.30
2022-10-26T07:57:41.424Z,11.40
2022-10-26T08:00:09.273Z,11.40
2022-10-26T08:02:36.049Z,11.50
2022-10-26T08:05:02.840Z,11.50
2022-10-26T08:07:29.586Z,11.60
2022-10-26T08:09:56.308Z,11.60
2022-10-26T08:12:23.005Z,11.70
2022-10-26T08:14:49.954Z,11.70
2022-10-26T08:17:16.717Z,11.70
2022-10-26T08:19:43.433Z,11.80
2022-10-26T08:22:10.229Z,11.80
2022-10-26T08:24:37.020Z,11.90
2022-10-26T08:27:03.737Z,11.80
2022-10-26T08:29:30.396Z,11.90
2022-10-26T08:31:57.218Z,11.90
2022-10-26T08:34:23.982Z,11.90
2022-10-26T08:36:50.660Z,11.90
2022-10-26T08:39:18.216Z,12.00
2022-10-26T08:41:46.208Z,12.00
2022-10-26T08:44:49.553Z,12.00
2022-10-26T08:47:23.817Z,12.00
2022-10-26T08:50:09.888Z,12.10
2022-10-26T08:53:02.167Z,12.10
2022-10-26T08:55:33.212Z,12.20
2022-10-26T08:58:01.296Z,12.20
2022-10-26T09:00:27.984Z,12.30
2022-10-26T09:02:54.696Z,12.30
2022-10-26T09:05:36.873Z,12.40
2022-10-26T09:08:40.624Z,12.40
2022-10-26T09:11:13.422Z,12.40
2022-10-26T09:14:12.387Z,12.40
2022-10-26T09:16:53.176Z,12.50
2022-10-26T09:19:19.997Z,12.50
2022-10-26T09:22:11.343Z,12.50
2022-10-26T09:24:53.321Z,12.50
2022-10-26T09:27:29.756Z,12.60
2022-10-26T09:30:00.997Z,12.60
2022-10-26T09:32:44.436Z,12.70
2022-10-26T09:35:15.951Z,12.70
2022-10-26T09:37:47.161Z,12.70
2022-10-26T09:40:31.267Z,12.80
2022-10-26T09:42:59.885Z,12.90
2022-10-26T09:45:41.075Z,12.90
2022-10-26T09:48:38.285Z,13.00
2022-10-26T09:51:05.164Z,13.00
2022-10-26T09:53:32.501Z,13.10
2022-10-26T09:56:02.424Z,13.10
2022-10-26T09:58:30.839Z,13.20
2022-10-26T10:00:57.512Z,13.20
2022-10-26T10:03:31.605Z,13.30
2022-10-26T10:06:16.107Z,13.30
2022-10-26T10:08:42.945Z,13.40
2022-10-26T10:11:13.783Z,13.40
2022-10-26T10:13:42.143Z,13.50
2022-10-26T10:16:21.573Z,13.50
2022-10-26T10:18:59.129Z,13.50
2022-10-26T10:21:39.472Z,13.60
2022-10-26T10:24:22.269Z,13.60
2022-10-26T10:27:17.956Z,13.60
2022-10-26T10:29:51.500Z,13.70
2022-10-26T10:32:27.713Z,13.70
2022-10-26T10:34:56.055Z,13.80
2022-10-26T10:37:41.591Z,13.80
2022-10-26T10:40:09.243Z,13.80
2022-10-26T10:42:37.383Z,13.90
2022-10-26T10:45:04.426Z,14.00
2022-10-26T10:47:32.785Z,14.00
2022-10-26T10:50:08.319Z,14.00
2022-10-26T10:52:35.511Z,14.10
2022-10-26T10:55:11.068Z,14.20
2022-10-26T10:58:08.799Z,14.30
2022-10-26T11:00:37.063Z,14.40
2022-10-26T11:03:30.739Z,14.40
2022-10-26T11:06:05.076Z,14.50
2022-10-26T11:09:02.928Z,14.50
2022-10-26T11:11:38.656Z,14.60
2022-10-26T11:14:16.176Z,14.70
2022-10-26T11:16:43.746Z,14.70
2022-10-26T11:19:18.517Z,14.80
2022-10-26T11:21:47.317Z,14.80
2022-10-26T11:24:34.468Z,14.90
2022-10-26T11:27:26.354Z,14.90
2022-10-26T11:30:01.957Z,15.00
2022-10-26T11:32:40.293Z,15.10
2022-10-26T11:35:45.810Z,15.20
2022-10-26T11:38:46.733Z,15.30
2022-10-26T11:41:55.161Z,15.30
2022-10-26T11:44:34.675Z,15.40
2022-10-26T11:47:16.451Z,15.60
2022-10-26T11:49:57.794Z,15.60
2022-10-26T11:52:30.147Z,15.70
2022-10-26T11:55:00.466Z,15.80
2022-10-26T11:57:28.890Z,15.90
2022-10-26T12:00:04.638Z,16.00
2022-10-26T12:02:31.376Z,16.00
2022-10-26T12:05:07.090Z,16.10
2022-10-26T12:07:38.131Z,16.10
2022-10-26T12:10:06.902Z,16.20
2022-10-26T12:12:41.555Z,16.20
2022-10-26T12:15:15.081Z,16.20
2022-10-26T12:17:59.402Z,16.30
2022-10-26T12:21:02.548Z,16.30
2022-10-26T12:23:40.873Z,16.30
2022-10-26T12:26:23.768Z,16.40
2022-10-26T12:29:14.489Z,16.40
2022-10-26T12:31:42.807Z,16.40
2022-10-26T12:34:14.342Z,16.40
2022-10-26T12:36:56.395Z,16.50
2022-10-26T12:39:41.934Z,16.50
2022-10-26T12:42:08.589Z,16.50
2022-10-26T12:45:01.624Z,16.50
2022-10-26T12:47:28.268Z,16.60
2022-10-26T12:50:07.488Z,16.60
2022-10-26T12:52:40.441Z,16.60
2022-10-26T12:55:13.124Z,16.60
2022-10-26T12:57:45.360Z,16.70
2022-10-26T13:00:18.855Z,16.70
2022-10-26T13:03:20.708Z,16.70
2022-10-26T13:05:50.168Z,16.80
2022-10-26T13:08:17.081Z,16.80
2022-10-26T13:11:07.714Z,16.80
2022-10-26T13:13:34.501Z,16.90
2022-10-26T13:16:03.108Z,16.90
2022-10-26T13:18:29.860Z,16.90
2022-10-26T13:21:11.662Z,16.90
2022-10-26T13:23:42.841Z,16.90
2022-10-26T13:26:14.271Z,16.90
2022-10-26T13:28:40.947Z,16.90
2022-10-26T13:31:29.241Z,16.90
2022-10-26T13:37:07.943Z,17.00
2022-10-26T13:39:40.256Z,17.00
2022-10-26T13:42:07.718Z,17.10
2022-10-26T13:44:57.712Z,17.10
2022-10-26T13:47:27.695Z,17.10
2022-10-26T13:49:55.684Z,17.10
2022-10-26T13:52:28.176Z,17.10
2022-10-26T13:55:00.041Z,17.20
2022-10-26T13:57:34.184Z,17.20
2022-10-26T14:00:03.928Z,17.20
2022-10-26T14:02:31.341Z,17.20
2022-10-26T14:05:02.618Z,17.20
2022-10-26T14:07:39.770Z,17.30
2022-10-26T14:10:06.976Z,17.30
2022-10-26T14:12:33.806Z,17.40
2022-10-26T14:15:06.983Z,17.40
2022-10-26T14:17:33.673Z,17.40
2022-10-26T14:20:00.348Z,17.40
2022-10-26T14:22:27.916Z,17.50
2022-10-26T14:27:37.904Z,17.50
2022-10-26T14:30:27.539Z,17.50
2022-10-26T14:32:54.560Z,17.50
2022-10-26T14:35:23.088Z,17.50
2022-10-26T14:37:54.411Z,17.50
2022-10-26T14:40:22.999Z,17.40
2022-10-26T14:42:54.749Z,17.40
2022-10-26T14:45:47.755Z,17.40
2022-10-26T14:48:21.468Z,17.30
2022-10-26T14:51:16.826Z,17.20
2022-10-26T14:53:49.254Z,17.20
2022-10-26T14:56:28.836Z,17.20
2022-10-26T14:58:55.832Z,17.20
2022-10-26T15:01:22.700Z,17.20
2022-10-26T15:03:58.258Z,17.20
2022-10-26T15:06:27.958Z,17.20
2022-10-26T15:09:01.582Z,17.20
2022-10-26T15:11:28.882Z,17.20
2022-10-26T15:13:56.089Z,17.20
2022-10-26T15:16:24.543Z,17.20
2022-10-26T15:18:56.134Z,17.10
2022-10-26T15:21:25.008Z,17.00
2022-10-26T15:23:52.197Z,17.00
2022-10-26T15:26:18.965Z,17.00
2022-10-26T15:28:47.172Z,17.00
2022-10-26T15:31:16.566Z,17.00
2022-10-26T15:33:52.360Z,17.00
2022-10-26T15:36:20.108Z,17.00
2022-10-26T15:38:48.151Z,17.00
2022-10-26T15:41:16.074Z,17.00
2022-10-26T15:43:42.830Z,16.90
2022-10-26T15:46:09.493Z,16.90
2022-10-26T15:48:36.368Z,16.90
2022-10-26T15:51:03.129Z,16.90
2022-10-26T15:53:30.469Z,16.90
2022-10-26T15:55:58.759Z,16.90
2022-10-26T15:58:26.095Z,16.80
2022-10-26T16:00:52.852Z,16.80
2022-10-26T16:03:24.149Z,16.80
2022-10-26T16:05:56.732Z,16.70
2022-10-26T16:08:23.501Z,16.60
2022-10-26T16:10:51.137Z,16.50
2022-10-26T16:13:17.823Z,16.50
2022-10-26T16:15:44.635Z,16.60
2022-10-26T16:18:11.392Z,16.60
2022-10-26T16:20:38.140Z,16.60
2022-10-26T16:23:07.608Z,16.50
2022-10-26T16:25:41.417Z,16.50
2022-10-26T16:28:08.928Z,16.40
2022-10-26T16:30:36.894Z,16.40
2022-10-26T16:33:03.704Z,16.40
2022-10-26T16:35:30.398Z,16.50
2022-10-26T16:37:57.073Z,16.50
2022-10-26T16:40:23.795Z,16.50
2022-10-26T16:42:50.565Z,16.50
2022-10-26T16:45:17.672Z,16.40
2022-10-26T16:47:44.423Z,16.40
2022-10-26T16:50:11.969Z,16.40
2022-10-26T16:52:38.885Z,16.30
2022-10-26T16:55:06.754Z,16.30
2022-10-26T16:57:33.670Z,16.30
2022-10-26T17:00:00.375Z,16.30
2022-10-26T17:02:27.192Z,16.30
2022-10-26T17:04:53.909Z,16.20
2022-10-26T17:07:20.600Z,16.20
2022-10-26T17:09:47.284Z,16.30
2022-10-26T17:12:14.026Z,16.20
2022-10-26T17:14:40.742Z,16.20
2022-10-26T17:17:07.470Z,16.20
2022-10-26T17:19:34.177Z,16.20
2022-10-26T17:22:03.719Z,16.20
2022-10-26T17:24:33.105Z,16.10
2022-10-26T17:26:59.890Z,16.10
2022-10-26T17:29:26.575Z,16.10
2022-10-26T17:31:53.279Z,16.10
2022-10-26T17:34:19.964Z,16.00
2022-10-26T17:36:46.845Z,16.00
2022-10-26T17:39:13.577Z,16.00
2022-10-26T17:41:40.265Z,16.00
2022-10-26T17:44:06.950Z,16.00
2022-10-26T17:46:34.154Z,16.00
2022-10-26T17:49:00.916Z,16.00
2022-10-26T17:51:28.990Z,16.00
2022-10-26T17:53:55.916Z,16.00
2022-10-26T17:56:25.323Z,15.80
2022-10-26T17:58:56.186Z,15.80
2022-10-26T18:01:23.211Z,15.80
2022-10-26T18:03:50.190Z,15.80
2022-10-26T18:06:19.415Z,15.70
2022-10-26T18:08:46.243Z,15.70
2022-10-26T18:11:25.357Z,15.60
2022-10-26T18:13:53.873Z,15.60
2022-10-26T18:16:22.217Z,15.60
2022-10-26T18:18:52.135Z,15.70
2022-10-26T18:21:19.624Z,15.70
2022-10-26T18:23:46.677Z,15.70
2022-10-26T18:26:18.041Z,15.60
2022-10-26T18:28:44.901Z,15.60
2022-10-26T18:31:15.401Z,15.60
2022-10-26T18:33:42.062Z,15.50
2022-10-26T18:36:10.337Z,15.50
2022-10-26T18:38:37.247Z,15.50
2022-10-26T18:41:04.265Z,15.40
2022-10-26T18:43:30.924Z,15.40
2022-10-26T18:46:14.106Z,15.40
2022-10-26T18:48:43.447Z,15.40
2022-10-26T18:51:14.513Z,15.40
2022-10-26T18:53:42.067Z,15.40
2022-10-26T18:56:13.279Z,15.40
2022-10-26T18:58:41.315Z,15.30
2022-10-26T19:01:10.945Z,15.30
2022-10-26T19:03:37.839Z,15.30
2022-10-26T19:06:21.551Z,15.30
2022-10-26T19:08:48.471Z,15.30
2022-10-26T19:11:17.198Z,15.20
2022-10-26T19:13:44.022Z,15.20
2022-10-26T19:16:40.321Z,15.20
2022-10-26T19:19:08.946Z,15.10
2022-10-26T19:21:35.651Z,15.00
2022-10-26T19:24:02.446Z,14.90
2022-10-26T19:26:34.238Z,14.90
2022-10-26T19:29:02.792Z,14.90
2022-10-26T19:31:32.388Z,14.90
2022-10-26T19:33:59.837Z,14.90
2022-10-26T19:36:27.261Z,14.90
2022-10-26T19:38:54.492Z,14.90
2022-10-26T19:41:23.975Z,14.80
2022-10-26T19:43:50.860Z,14.80
2022-10-26T19:46:19.190Z,14.80
2022-10-26T19:48:53.123Z,14.80
2022-10-26T19:51:19.879Z,14.80
2022-10-26T19:53:46.568Z,14.80
2022-10-26T19:56:13.536Z,14.70
2022-10-26T19:58:44.038Z,14.70
2022-10-26T20:01:11.655Z,14.70
2022-10-26T20:03:38.506Z,14.60
2022-10-26T20:06:08.189Z,14.60
2022-10-26T20:08:36.046Z,14.60
2022-10-26T20:11:02.967Z,14.60
2022-10-26T20:13:29.645Z,14.60
2022-10-26T20:15:56.363Z,14.60
2022-10-26T20:18:23.139Z,14.50
2022-10-26T20:20:49.849Z,14.60
2022-10-26T20:23:16.692Z,14.50
2022-10-26T20:25:48.171Z,14.50
2022-10-26T20:28:15.283Z,14.50
2022-10-26T20:30:42.225Z,14.50
2022-10-26T20:33:09.482Z,14.50
2022-10-26T20:35:36.289Z,14.50
2022-10-26T20:38:03.593Z,14.50
2022-10-26T20:40:30.614Z,14.50
2022-10-26T20:42:57.642Z,14.50
2022-10-26T20:45:30.809Z,14.40
2022-10-26T20:47:58.235Z,14.40
2022-10-26T20:50:26.378Z,14.40
2022-10-26T20:52:59.533Z,14.40
2022-10-26T20:55:44.670Z,14.30
2022-10-26T20:58:11.334Z,14.30
2022-10-26T21:00:42.524Z,14.40
2022-10-26T21:03:09.608Z,14.30
2022-10-26T21:05:36.327Z,14.30
2022-10-26T21:08:03.027Z,14.30
2022-10-26T21:10:29.927Z,14.20
2022-10-26T21:12:56.681Z,14.20
2022-10-26T21:15:23.353Z,14.20
2022-10-26T21:17:50.356Z,14.20
2022-10-26T21:20:17.440Z,14.20
2022-10-26T21:22:44.089Z,14.20
2022-10-26T21:25:10.769Z,14.10
2022-10-26T21:27:37.501Z,14.10
2022-10-26T21:30:04.683Z,14.00
2022-10-26T21:32:31.702Z,14.00
2022-10-26T21:34:58.370Z,14.00
2022-10-26T21:37:26.711Z,13.90
2022-10-26T21:39:53.922Z,13.90
2022-10-26T21:42:20.840Z,13.90
2022-10-26T21:44:47.487Z,13.90
2022-10-26T21:47:14.207Z,13.90
2022-10-26T21:52:12.578Z,13.90
2022-10-26T21:54:39.241Z,13.80
2022-10-26T21:57:05.972Z,13.80
2022-10-26T21:59:32.706Z,13.80
2022-10-26T22:01:59.457Z,13.70
2022-10-26T22:04:26.373Z,13.70
2022-10-26T22:06:53.058Z,13.70
2022-10-26T22:09:19.740Z,13.70
2022-10-26T22:11:46.436Z,13.70
2022-10-26T22:14:13.894Z,13.60
2022-10-26T22:16:40.572Z,13.70
2022-10-26T22:19:07.929Z,13.60
2022-10-26T22:21:36.317Z,13.60
2022-10-26T22:24:03.183Z,13.60
2022-10-26T22:26:30.187Z,13.60
2022-10-26T22:28:57.400Z,13.60
2022-10-26T22:31:26.160Z,13.60
2022-10-26T22:33:57.477Z,13.70
2022-10-26T22:36:24.737Z,13.60
2022-10-26T22:38:51.641Z,13.60
2022-10-26T22:41:18.864Z,13.60
2022-10-26T22:43:45.569Z,13.70
2022-10-26T22:46:22.984Z,13.70
2022-10-26T22:48:54.081Z,13.70
2022-10-26T22:51:22.997Z,13.60
2022-10-26T22:53:53.515Z,13.70
2022-10-26T22:56:20.499Z,13.70
2022-10-26T22:58:47.253Z,13.70
2022-10-26T23:01:15.864Z,13.70
2022-10-26T23:03:42.811Z,13.70
2022-10-26T23:06:11.602Z,13.70
2022-10-26T23:08:38.286Z,13.70
2022-10-26T23:11:06.535Z,13.70
2022-10-26T23:13:33.570Z,13.70
2022-10-26T23:16:07.417Z,13.70
2022-10-26T23:18:34.735Z,13.70
2022-10-26T23:21:01.441Z,13.70
2022-10-26T23:23:28.119Z,13.70
2022-10-26T23:25:54.821Z,13.70
2022-10-26T23:28:21.469Z,13.70
2022-10-26T23:30:48.121Z,13.60
2022-10-26T23:33:14.784Z,13.60
2022-10-26T23:35:41.658Z,13.60
2022-10-26T23:40:39.913Z,13.70
2022-10-26T23:43:06.557Z,13.70
2022-10-26T23:45:33.197Z,13.60
2022-10-26T23:47:59.896Z,13.60
2022-10-26T23:50:26.623Z,13.60
2022-10-26T23:52:53.314Z,13.60
2022-10-26T23:55:20.078Z,13.60
2022-10-26T23:57:46.712Z,13.60
